Time;durP1;ratioP1;P1;durP2;ratioP2;P2;SDS_P1;SDS_P2;PMS_P1;PMS_P2;Temp;Humidity;BMP_temperature;BMP_pressure;BME280_temperature;BME280_humidity;BME280_pressure;Samples;Min_cycle;Max_cycle;Signal;HPM_P1;HPM_P2
2021/08/26 00:06:50;;;;;;;9.57;7.10;;;;;;;12.53;100.00;95805.31;5032796;28;20891;-74
2021/08/26 00:09:17;;;;;;;8.63;7.25;;;;;;;12.58;100.00;95803.22;5032928;28;20415;-74
2021/08/26 00:11:44;;;;;;;12.32;7.60;;;;;;;12.62;100.00;95802.06;5032928;28;20784;-74
2021/08/26 00:14:12;;;;;;;12.82;7.80;;;;;;;12.69;100.00;95797.28;5033238;28;20425;-74
2021/08/26 00:16:40;;;;;;;9.70;6.82;;;;;;;12.73;99.42;95786.56;5032648;28;20429;-74
2021/08/26 00:19:06;;;;;;;10.32;6.28;;;;;;;12.75;97.77;95789.03;5031650;28;20511;-74
2021/08/26 00:21:31;;;;;;;11.03;6.80;;;;;;;12.54;98.88;95788.81;5032956;28;20924;-74
2021/08/26 00:23:56;;;;;;;8.40;6.97;;;;;;;12.44;99.40;95791.19;5032735;28;20661;-74
2021/08/26 00:26:22;;;;;;;8.63;6.50;;;;;;;12.46;98.77;95791.09;5031280;28;20422;-75
2021/08/26 00:28:47;;;;;;;7.88;6.43;;;;;;;12.40;98.60;95784.56;5032810;28;20883;-74
2021/08/26 00:31:14;;;;;;;8.47;7.00;;;;;;;12.44;97.16;95785.19;5032744;28;20790;-74
2021/08/26 00:33:39;;;;;;;7.78;6.47;;;;;;;12.35;98.28;95779.69;5032673;28;20766;-74
2021/08/26 00:36:05;;;;;;;9.83;6.77;;;;;;;12.24;99.75;95773.59;5031082;28;20492;-74
2021/08/26 00:38:30;;;;;;;8.77;7.07;;;;;;;12.17;100.00;95787.94;5032417;28;20415;-74
2021/08/26 00:40:59;;;;;;;9.00;6.77;;;;;;;12.14;99.64;95783.78;5032581;28;20912;-74
2021/08/26 00:43:26;;;;;;;10.15;6.28;;;;;;;12.12;99.73;95783.03;5031161;28;20414;-74
2021/08/26 00:45:51;;;;;;;10.35;7.10;;;;;;;12.11;99.55;95779.63;5032025;28;20999;-74
2021/08/26 00:48:20;;;;;;;7.13;5.53;;;;;;;12.15;98.20;95780.22;5031122;28;20419;-75
2021/08/26 00:50:48;;;;;;;9.70;6.63;;;;;;;12.07;98.73;95777.34;5032247;28;20426;-75
2021/08/26 00:53:13;;;;;;;9.75;6.40;;;;;;;12.05;98.60;95781.78;5030945;28;20403;-75
2021/08/26 00:55:39;;;;;;;9.53;7.03;;;;;;;12.07;98.56;95777.34;5031991;28;20485;-74
2021/08/26 00:58:05;;;;;;;11.73;7.60;;;;;;;11.77;100.00;95775.84;5030937;28;20423;-74
2021/08/26 01:00:30;;;;;;;9.68;6.75;;;;;;;11.70;100.00;95779.81;5032120;28;20502;-74
2021/08/26 01:03:07;;;;;;;7.97;6.35;;;;;;;11.78;99.86;95781.88;5032050;28;20517;-74
2021/08/26 01:05:43;;;;;;;8.70;6.50;;;;;;;11.77;100.00;95770.66;5031616;28;20888;-74
2021/08/26 01:08:13;;;;;;;7.00;6.30;;;;;;;11.74;100.00;95762.25;5031991;28;20423;-73
2021/08/26 01:10:41;;;;;;;8.60;6.80;;;;;;;11.80;100.00;95756.66;5031839;28;20450;-74
2021/08/26 01:13:09;;;;;;;6.78;6.07;;;;;;;11.84;100.00;95758.97;5032003;28;20510;-73
2021/08/26 01:15:34;;;;;;;10.63;7.30;;;;;;;11.88;100.00;95744.03;5031519;28;20411;-74
2021/08/26 01:18:00;;;;;;;8.68;6.25;;;;;;;11.88;100.00;95749.22;5030501;28;20416;-74
2021/08/26 01:20:25;;;;;;;11.20;7.30;;;;;;;11.91;100.00;95743.00;5031663;28;20913;-75
2021/08/26 01:22:53;;;;;;;7.47;6.45;;;;;;;11.86;100.00;95749.34;5031676;28;20458;-74
2021/08/26 01:25:21;;;;;;;15.40;7.55;;;;;;;11.80;100.00;95748.88;5030122;28;20449;-75
2021/08/26 01:27:51;;;;;;;9.93;7.40;;;;;;;11.52;100.00;95744.72;5031650;28;20417;-75
2021/08/26 01:30:18;;;;;;;11.68;7.50;;;;;;;11.31;100.00;95747.81;5031520;28;20415;-74
2021/08/26 01:32:44;;;;;;;8.02;7.00;;;;;;;11.44;100.00;95744.41;5031504;28;20431;-74
2021/08/26 01:35:11;;;;;;;7.53;6.60;;;;;;;11.53;100.00;95742.03;5029872;28;20458;-74
2021/08/26 01:37:38;;;;;;;9.30;6.50;;;;;;;11.59;100.00;95738.19;5030162;28;20481;-74
2021/08/26 01:40:05;;;;;;;7.72;6.00;;;;;;;11.57;100.00;95746.09;5031446;28;20442;-74
2021/08/26 01:42:31;;;;;;;7.00;5.60;;;;;;;11.48;99.37;95731.13;5031265;28;20427;-74
2021/08/26 01:44:58;;;;;;;6.40;5.75;;;;;;;11.44;99.10;95731.44;5031739;28;20422;-74
2021/08/26 01:47:24;;;;;;;8.98;6.00;;;;;;;11.41;99.73;95724.69;5030955;28;20502;-74
2021/08/26 01:49:51;;;;;;;7.18;5.35;;;;;;;11.35;99.02;95728.53;5031354;28;20817;-74
2021/08/26 01:52:18;;;;;;;8.48;5.63;;;;;;;11.35;97.85;95727.69;5029627;28;20457;-74
2021/08/26 01:54:46;;;;;;;9.45;5.88;;;;;;;11.36;98.57;95722.41;5029905;28;20426;-74
2021/08/26 01:57:11;;;;;;;9.13;6.28;;;;;;;11.43;98.69;95722.00;5030858;28;20418;-74
2021/08/26 01:59:36;;;;;;;7.23;6.37;;;;;;;11.34;99.63;95720.84;5029652;28;20472;-74
2021/08/26 02:02:03;;;;;;;8.97;6.43;;;;;;;11.21;100.00;95720.81;5030558;28;20472;-74
2021/08/26 02:04:29;;;;;;;6.72;6.03;;;;;;;11.19;99.78;95724.44;5029819;28;20522;-74
2021/08/26 02:06:54;;;;;;;10.03;6.70;;;;;;;11.12;99.83;95722.28;5030662;28;20609;-74
2021/08/26 02:09:19;;;;;;;9.38;6.25;;;;;;;10.98;100.00;95722.34;5031070;28;20419;-74
2021/08/26 02:11:45;;;;;;;8.60;6.30;;;;;;;10.93;100.00;95726.16;5030885;28;20456;-74
2021/08/26 02:14:10;;;;;;;8.90;6.83;;;;;;;10.75;100.00;95723.81;5030838;28;20465;-74
2021/08/26 02:16:35;;;;;;;8.23;6.37;;;;;;;10.73;100.00;95722.25;5030517;28;20909;-74
2021/08/26 02:19:02;;;;;;;8.43;6.13;;;;;;;10.78;100.00;95726.19;5030919;28;20457;-74
2021/08/26 02:21:28;;;;;;;6.63;5.93;;;;;;;10.79;100.00;95732.22;5030747;28;20411;-74
2021/08/26 02:23:54;;;;;;;8.73;6.90;;;;;;;10.80;100.00;95729.53;5029545;28;20921;-74
2021/08/26 02:26:19;;;;;;;7.00;6.03;;;;;;;10.88;99.40;95723.84;5030566;28;20425;-74
2021/08/26 02:28:45;;;;;;;6.90;5.77;;;;;;;10.87;98.68;95720.44;5030739;28;20451;-74
2021/08/26 02:31:10;;;;;;;6.03;5.43;;;;;;;10.81;99.70;95730.38;5030605;28;20422;-74
2021/08/26 02:33:35;;;;;;;7.10;5.87;;;;;;;10.82;98.26;95721.66;5030693;28;20419;-74
2021/08/26 02:36:03;;;;;;;11.93;6.43;;;;;;;10.75;98.82;95720.38;5030310;28;20630;-74
2021/08/26 02:38:28;;;;;;;7.22;5.80;;;;;;;10.75;99.37;95720.38;5030621;28;20425;-74
2021/08/26 02:40:54;;;;;;;7.63;6.47;;;;;;;10.77;99.29;95710.78;5030599;28;20426;-74
2021/08/26 02:43:19;;;;;;;10.60;5.80;;;;;;;10.79;97.91;95714.94;5030580;28;20415;-74
2021/08/26 02:45:44;;;;;;;8.80;6.07;;;;;;;10.72;98.96;95711.06;5030130;28;20517;-74
2021/08/26 02:48:10;;;;;;;7.53;6.20;;;;;;;10.74;98.99;95710.97;5030565;28;20450;-74
2021/08/26 02:50:35;;;;;;;11.30;6.73;;;;;;;10.79;98.41;95699.38;5030401;28;20517;-74
2021/08/26 02:53:02;;;;;;;8.43;6.27;;;;;;;10.73;99.71;95694.59;5030466;28;20414;-74
2021/08/26 02:55:28;;;;;;;8.35;6.38;;;;;;;10.72;100.00;95685.16;5030138;28;20476;-74
2021/08/26 02:57:54;;;;;;;9.73;6.22;;;;;;;10.74;100.00;95680.69;5030435;28;20422;-74
2021/08/26 03:00:19;;;;;;;7.10;5.70;;;;;;;10.77;100.00;95674.50;5030432;28;20418;-74
2021/08/26 03:02:44;;;;;;;12.73;6.73;;;;;;;10.83;100.00;95674.94;5030404;28;20418;-74
2021/08/26 03:05:10;;;;;;;8.23;6.53;;;;;;;10.91;100.00;95674.44;5029939;28;20463;-74
2021/08/26 03:07:35;;;;;;;8.15;6.38;;;;;;;10.98;100.00;95674.88;5030431;28;20414;-74
2021/08/26 03:10:03;;;;;;;7.23;6.53;;;;;;;11.01;100.00;95669.47;5030323;28;20419;-75
2021/08/26 03:12:28;;;;;;;10.70;7.05;;;;;;;11.01;100.00;95670.31;5031139;28;20433;-74
2021/08/26 03:14:54;;;;;;;9.00;6.97;;;;;;;11.08;100.00;95660.34;5033924;28;20426;-74
2021/08/26 03:17:19;;;;;;;11.50;7.40;;;;;;;11.10;100.00;95656.72;5033863;28;20809;-74
2021/08/26 03:19:44;;;;;;;11.20;7.07;;;;;;;11.15;100.00;95648.66;5034154;28;20410;-74
2021/08/26 03:22:10;;;;;;;9.77;7.13;;;;;;;11.16;100.00;95637.38;5034009;28;20425;-75
2021/08/26 03:24:35;;;;;;;7.10;6.33;;;;;;;11.21;100.00;95635.28;5034468;28;20467;-75
2021/08/26 03:27:02;;;;;;;6.77;6.07;;;;;;;11.22;100.00;95626.56;5033579;28;20425;-74
2021/08/26 03:29:28;;;;;;;9.90;7.05;;;;;;;11.19;100.00;95633.72;5033817;28;20976;-74
2021/08/26 03:31:53;;;;;;;7.68;6.53;;;;;;;11.05;100.00;95632.91;5033794;28;20513;-74
2021/08/26 03:34:19;;;;;;;11.90;7.53;;;;;;;11.01;100.00;95633.19;5032373;28;20522;-74
2021/08/26 03:36:44;;;;;;;9.50;5.97;;;;;;;10.89;100.00;95634.81;5033467;28;20449;-74
2021/08/26 03:39:10;;;;;;;7.93;6.33;;;;;;;11.00;100.00;95628.94;5033742;28;20419;-74
2021/08/26 03:41:35;;;;;;;8.10;6.40;;;;;;;11.00;100.00;95632.34;5032474;28;20419;-74
2021/08/26 03:44:02;;;;;;;7.93;6.40;;;;;;;10.96;100.00;95641.25;5032557;28;20999;-74
2021/08/26 03:46:27;;;;;;;10.57;7.07;;;;;;;10.88;100.00;95643.53;5032760;28;20423;-74
2021/08/26 03:48:53;;;;;;;11.33;7.27;;;;;;;10.77;100.00;95640.81;5033402;28;20421;-74
2021/08/26 03:51:18;;;;;;;7.27;6.57;;;;;;;10.86;100.00;95646.25;5032064;28;20427;-75
2021/08/26 03:53:44;;;;;;;6.93;5.70;;;;;;;11.05;100.00;95643.25;5033964;28;20419;-78
2021/08/26 03:56:09;;;;;;;7.67;5.60;;;;;;;11.06;100.00;95646.69;5033860;28;20845;-76
2021/08/26 03:58:35;;;;;;;12.10;6.82;;;;;;;11.07;100.00;95645.75;5032564;28;20423;-77
2021/08/26 04:01:03;;;;;;;7.47;6.35;;;;;;;10.86;100.00;95642.81;5031769;28;20948;-76
2021/08/26 04:03:29;;;;;;;10.15;6.78;;;;;;;10.70;100.00;95637.81;5025699;28;20423;-77
2021/08/26 04:05:54;;;;;;;8.27;6.65;;;;;;;10.65;100.00;95637.28;5033522;28;20923;-77
2021/08/26 04:08:20;;;;;;;9.80;6.70;;;;;;;10.68;100.00;95637.09;5033702;28;20423;-77
2021/08/26 04:10:45;;;;;;;10.57;6.70;;;;;;;10.61;100.00;95639.25;5032706;28;20797;-77
2021/08/26 04:13:10;;;;;;;12.20;7.17;;;;;;;10.60;100.00;95628.97;5033724;28;20450;-77
2021/08/26 04:15:36;;;;;;;10.07;6.33;;;;;;;10.63;100.00;95633.94;5032498;28;20419;-77
2021/08/26 04:18:03;;;;;;;7.38;6.60;;;;;;;10.68;100.00;95633.66;5032544;28;20509;-76
2021/08/26 04:20:28;;;;;;;8.48;6.25;;;;;;;10.74;100.00;95630.66;5037021;28;20422;-77
2021/08/26 04:22:54;;;;;;;10.45;6.57;;;;;;;10.79;100.00;95632.03;5032625;28;20858;-74
2021/08/26 04:25:19;;;;;;;8.55;6.40;;;;;;;10.89;100.00;95624.47;5046746;28;20425;-76
2021/08/26 04:27:44;;;;;;;8.63;6.20;;;;;;;10.93;100.00;95631.09;5045876;28;20415;-77
2021/08/26 04:30:10;;;;;;;9.40;6.90;;;;;;;10.70;100.00;95632.63;5032796;28;20423;-77
2021/08/26 04:32:36;;;;;;;8.25;6.78;;;;;;;10.73;100.00;95631.59;5032537;28;20517;-76
2021/08/26 04:35:04;;;;;;;11.18;6.40;;;;;;;10.49;100.00;95621.06;5032524;28;20506;-76
2021/08/26 04:37:29;;;;;;;9.95;7.55;;;;;;;10.56;100.00;95614.56;5032392;28;20411;-76
2021/08/26 04:39:55;;;;;;;7.82;6.32;;;;;;;10.69;100.00;95620.59;5031779;28;20951;-76
2021/08/26 04:42:20;;;;;;;10.35;6.00;;;;;;;10.95;100.00;95615.47;5032701;28;20415;-77
2021/08/26 04:44:46;;;;;;;6.85;6.15;;;;;;;10.99;100.00;95620.34;5032751;28;20446;-77
2021/08/26 04:47:11;;;;;;;8.73;6.22;;;;;;;10.97;100.00;95617.00;5051425;22;20486;-76
2021/08/26 04:49:37;;;;;;;8.27;6.30;;;;;;;10.84;100.00;95608.41;5036266;28;20411;-77
2021/08/26 04:52:04;;;;;;;9.02;6.75;;;;;;;10.73;100.00;95606.53;5037691;28;20463;-78
2021/08/26 04:54:30;;;;;;;10.32;6.25;;;;;;;10.87;100.00;95616.81;5035021;28;20425;-78
2021/08/26 04:56:55;;;;;;;7.90;6.45;;;;;;;10.92;100.00;95621.69;5033786;28;20415;-77
2021/08/26 04:59:21;;;;;;;7.30;5.93;;;;;;;11.02;100.00;95624.50;5032066;28;20757;-76
2021/08/26 05:01:46;;;;;;;8.73;7.10;;;;;;;11.03;100.00;95616.59;5032013;28;20419;-77
2021/08/26 05:04:12;;;;;;;8.00;6.23;;;;;;;10.95;100.00;95612.88;5031551;28;20454;-77
2021/08/26 05:06:37;;;;;;;9.03;6.77;;;;;;;10.87;100.00;95622.00;5031457;28;20510;-76
2021/08/26 05:09:04;;;;;;;10.07;6.75;;;;;;;10.93;100.00;95627.69;5031967;28;20411;-77
2021/08/26 05:11:29;;;;;;;8.77;6.18;;;;;;;11.02;100.00;95619.31;5030427;28;20757;-76
2021/08/26 05:13:55;;;;;;;7.10;6.40;;;;;;;10.93;100.00;95615.56;5032044;28;20429;-77
2021/08/26 05:16:20;;;;;;;7.30;6.13;;;;;;;11.02;100.00;95625.31;5031611;28;20642;-77
2021/08/26 05:18:46;;;;;;;7.03;6.32;;;;;;;11.02;100.00;95614.97;5030382;28;20501;-77
2021/08/26 05:21:11;;;;;;;10.03;6.73;;;;;;;11.02;100.00;95614.13;5032038;28;20433;-77
2021/08/26 05:23:37;;;;;;;12.13;6.80;;;;;;;11.14;100.00;95615.88;5032156;28;20771;-76
2021/08/26 05:26:04;;;;;;;9.10;6.67;;;;;;;11.08;100.00;95619.72;5029713;28;20418;-76
2021/08/26 05:28:29;;;;;;;9.55;6.45;;;;;;;11.21;100.00;95609.34;5029182;28;20411;-77
2021/08/26 05:30:55;;;;;;;8.73;6.47;;;;;;;11.30;100.00;95616.50;5031521;28;20419;-77
2021/08/26 05:33:20;;;;;;;10.68;6.78;;;;;;;11.38;100.00;95611.63;5030238;28;20496;-77
2021/08/26 05:35:46;;;;;;;7.90;6.47;;;;;;;11.35;100.00;95611.84;5043521;28;20426;-76
2021/08/26 05:38:13;;;;;;;11.47;7.00;;;;;;;11.43;100.00;95600.94;5031438;28;20418;-77
2021/08/26 05:40:38;;;;;;;8.55;6.65;;;;;;;11.55;100.00;95610.47;5030156;28;20426;-76
2021/08/26 05:43:05;;;;;;;8.70;6.43;;;;;;;11.47;100.00;95615.34;5041280;28;20414;-79
2021/08/26 05:45:30;;;;;;;16.50;7.18;;;;;;;11.39;100.00;95618.47;5041332;28;20609;-78
2021/08/26 05:47:56;;;;;;;8.57;7.20;;;;;;;11.42;100.00;95619.19;5031787;28;20450;-77
2021/08/26 05:50:22;;;;;;;7.82;6.82;;;;;;;11.50;100.00;95616.91;5028728;28;20463;-76
2021/08/26 05:52:48;;;;;;;11.20;6.85;;;;;;;11.61;100.00;95624.78;5035380;28;20419;-77
2021/08/26 05:55:14;;;;;;;8.35;6.65;;;;;;;11.73;100.00;95616.16;5027348;28;20431;-78
2021/08/26 05:57:39;;;;;;;8.13;6.88;;;;;;;11.81;100.00;95619.03;5036191;28;20508;-78
2021/08/26 06:00:08;;;;;;;8.70;6.88;;;;;;;11.81;100.00;95621.63;5023637;28;20448;-77
2021/08/26 06:02:33;;;;;;;10.23;7.20;;;;;;;11.89;100.00;95612.50;5026004;28;20435;-77
2021/08/26 06:04:59;;;;;;;7.67;6.63;;;;;;;11.94;100.00;95620.78;5031426;28;20426;-78
2021/08/26 06:07:24;;;;;;;12.57;7.83;;;;;;;11.99;100.00;95623.91;5035170;28;20498;-78
2021/08/26 06:09:50;;;;;;;8.07;6.60;;;;;;;12.05;100.00;95621.72;5034865;28;20473;-81
2021/08/26 06:12:15;;;;;;;11.37;7.83;;;;;;;11.90;100.00;95616.75;5033997;28;20513;-80
2021/08/26 06:14:41;;;;;;;9.27;7.70;;;;;;;11.88;100.00;95621.22;5034308;28;20453;-80
2021/08/26 06:17:08;;;;;;;8.70;7.32;;;;;;;11.77;100.00;95625.38;5021516;28;20494;-81
2021/08/26 06:19:33;;;;;;;9.88;7.90;;;;;;;11.91;100.00;95616.66;5026281;28;20430;-81
2021/08/26 06:21:58;;;;;;;11.13;7.60;;;;;;;11.95;100.00;95612.09;5021305;28;20410;-76
2021/08/26 06:24:24;;;;;;;9.63;6.78;;;;;;;11.91;100.00;95616.66;5038981;28;20449;-76
2021/08/26 06:26:49;;;;;;;9.55;7.00;;;;;;;11.93;100.00;95613.94;5035764;28;20419;-75
2021/08/26 06:29:15;;;;;;;11.90;6.77;;;;;;;11.80;100.00;95617.38;5034150;28;20927;-80
2021/08/26 06:31:41;;;;;;;9.43;7.00;;;;;;;11.82;100.00;95622.44;5035192;28;20423;-79
2021/08/26 06:34:07;;;;;;;10.43;7.07;;;;;;;11.75;100.00;95626.41;5032965;28;20423;-82
2021/08/26 06:36:33;;;;;;;8.97;6.40;;;;;;;11.77;100.00;95619.34;5032133;28;20426;-80
2021/08/26 06:38:59;;;;;;;7.13;6.43;;;;;;;11.81;100.00;95615.59;5032143;28;20453;-80
2021/08/26 06:41:25;;;;;;;8.45;6.72;;;;;;;11.91;100.00;95616.66;5031973;28;20454;-79
2021/08/26 06:43:51;;;;;;;9.93;7.13;;;;;;;11.94;100.00;95624.22;5031750;28;20473;-78
2021/08/26 06:46:16;;;;;;;10.43;6.73;;;;;;;11.88;100.00;95629.03;5031694;28;20426;-81
2021/08/26 06:48:42;;;;;;;15.70;7.00;;;;;;;12.00;100.00;95625.56;5035840;28;20498;-81
2021/08/26 06:51:08;;;;;;;12.13;7.03;;;;;;;12.13;100.00;95628.13;5037736;28;20434;-80
2021/08/26 06:53:34;;;;;;;8.30;6.90;;;;;;;12.26;100.00;95621.91;5038680;28;20442;-77
2021/08/26 06:55:59;;;;;;;9.00;7.10;;;;;;;12.43;100.00;95623.31;5041237;28;20488;-78
2021/08/26 06:58:25;;;;;;;10.15;7.13;;;;;;;12.55;100.00;95622.41;5041916;28;20819;-78
2021/08/26 07:00:50;;;;;;;7.60;6.78;;;;;;;12.64;100.00;95623.50;5038857;28;20437;-78
2021/08/26 07:03:16;;;;;;;10.43;7.60;;;;;;;12.72;100.00;95633.34;5041251;28;20421;-77
2021/08/26 07:05:41;;;;;;;8.97;7.20;;;;;;;13.07;100.00;95628.13;5039871;28;20505;-78
2021/08/26 07:08:08;;;;;;;10.87;6.60;;;;;;;13.03;100.00;95631.91;5038861;28;20509;-78
2021/08/26 07:10:34;;;;;;;13.48;7.70;;;;;;;13.07;100.00;95628.97;5039385;28;20425;-78
2021/08/26 07:12:59;;;;;;;11.37;7.23;;;;;;;13.18;100.00;95619.53;5040740;28;20414;-77
2021/08/26 07:15:25;;;;;;;8.73;7.60;;;;;;;13.19;100.00;95621.19;5040420;28;20434;-77
2021/08/26 07:17:51;;;;;;;8.90;6.95;;;;;;;13.14;100.00;95616.34;5041693;28;20441;-77
2021/08/26 07:20:16;;;;;;;8.83;7.40;;;;;;;13.19;100.00;95613.38;5058146;28;20446;-78
2021/08/26 07:22:42;;;;;;;11.13;7.67;;;;;;;13.18;100.00;95611.72;5040650;28;20419;-78
2021/08/26 07:25:10;;;;;;;9.10;7.47;;;;;;;13.21;100.00;95609.72;5055867;28;20446;-77
2021/08/26 07:27:35;;;;;;;11.05;7.85;;;;;;;13.23;100.00;95615.66;5041810;28;20422;-77
2021/08/26 07:30:01;;;;;;;8.88;7.50;;;;;;;13.30;99.71;95606.44;5042070;28;20423;-76
2021/08/26 07:32:26;;;;;;;11.00;7.63;;;;;;;13.42;100.00;95602.09;5038980;28;20498;-77
2021/08/26 07:34:52;;;;;;;11.40;7.10;;;;;;;13.89;100.00;95609.75;5042522;28;20418;-77
2021/08/26 07:37:17;;;;;;;8.03;6.87;;;;;;;13.83;100.00;95607.63;5041052;28;20421;-79
2021/08/26 07:39:44;;;;;;;10.03;7.60;;;;;;;13.86;100.00;95607.38;5040176;28;20477;-79
2021/08/26 07:42:11;;;;;;;11.50;8.18;;;;;;;13.95;100.00;95601.47;5038550;28;20928;-77
2021/08/26 07:44:36;;;;;;;9.20;7.70;;;;;;;13.95;100.00;95602.31;5042023;28;20485;-78
2021/08/26 07:47:02;;;;;;;11.93;8.40;;;;;;;13.95;100.00;95596.28;5036657;28;20932;-77
2021/08/26 07:49:32;;;;;;;12.25;8.07;;;;;;;13.96;100.00;95598.75;5038225;28;20450;-77
2021/08/26 07:52:00;;;;;;;13.83;8.37;;;;;;;14.11;100.00;95594.09;5049339;28;20447;-76
2021/08/26 07:54:27;;;;;;;9.02;7.32;;;;;;;14.18;100.00;95597.03;5043560;28;20450;-77
2021/08/26 07:56:52;;;;;;;8.80;7.90;;;;;;;14.34;99.67;95601.84;5035603;28;20419;-76
2021/08/26 07:59:19;;;;;;;12.18;8.05;;;;;;;14.70;97.95;95604.09;5036409;28;20898;-77
2021/08/26 08:01:44;;;;;;;12.48;8.13;;;;;;;14.87;97.22;95599.28;5033052;28;20417;-76
2021/08/26 08:04:10;;;;;;;11.87;8.90;;;;;;;14.77;100.00;95601.81;5033861;28;20498;-77
2021/08/26 08:06:35;;;;;;;10.73;8.03;;;;;;;14.73;100.00;95605.66;5031642;28;20978;-76
2021/08/26 08:09:01;;;;;;;11.00;9.20;;;;;;;14.48;98.12;95609.38;5033738;28;20927;-76
2021/08/26 08:11:26;;;;;;;10.13;9.13;;;;;;;14.55;98.53;95609.75;5031716;28;20431;-76
2021/08/26 08:13:52;;;;;;;11.68;10.10;;;;;;;14.37;97.38;95609.41;5030973;28;22054;-77
2021/08/26 08:16:19;;;;;;;14.33;10.33;;;;;;;14.28;99.21;95622.25;5019908;28;20429;-78
2021/08/26 08:18:44;;;;;;;12.23;10.10;;;;;;;14.21;98.40;95607.22;5024712;28;20429;-78
2021/08/26 08:21:10;;;;;;;15.23;10.20;;;;;;;14.15;99.62;95599.88;5035583;28;20427;-78
2021/08/26 08:23:35;;;;;;;14.50;11.50;;;;;;;13.96;98.48;95608.34;5034682;28;20426;-76
2021/08/26 08:26:01;;;;;;;17.83;11.75;;;;;;;13.95;99.91;95610.09;5033859;28;20480;-77
2021/08/26 08:28:27;;;;;;;16.20;11.20;;;;;;;13.93;97.91;95609.38;5037273;28;20484;-77
2021/08/26 08:30:52;;;;;;;18.15;11.30;;;;;;;13.89;98.53;95607.16;5035277;28;20411;-77
2021/08/26 08:33:19;;;;;;;16.02;10.90;;;;;;;13.83;97.84;95605.03;5037653;28;20918;-79
2021/08/26 08:35:44;;;;;;;13.90;10.88;;;;;;;13.85;99.04;95608.34;5056127;28;20440;-81
2021/08/26 08:38:10;;;;;;;13.67;10.07;;;;;;;13.89;99.08;95609.75;5058065;28;20425;-81
2021/08/26 08:40:37;;;;;;;11.53;9.67;;;;;;;13.85;98.53;95609.16;5058939;28;20455;-80
2021/08/26 08:43:03;;;;;;;14.65;9.95;;;;;;;13.77;99.36;95608.94;5060898;28;20782;-80
2021/08/26 08:45:29;;;;;;;13.40;9.40;;;;;;;13.78;100.00;95611.41;5059786;28;20417;-81
2021/08/26 08:47:57;;;;;;;12.68;9.25;;;;;;;13.83;98.76;95611.09;5056977;28;20428;-81
2021/08/26 08:50:26;;;;;;;9.80;8.52;;;;;;;13.87;99.83;95612.50;5040419;28;20425;-80
2021/08/26 08:52:52;;;;;;;14.07;9.50;;;;;;;13.78;99.02;95611.41;5035357;28;20569;-80
2021/08/26 08:55:19;;;;;;;12.80;9.40;;;;;;;13.85;99.97;95616.16;5034740;28;20447;-79
2021/08/26 08:57:45;;;;;;;12.85;9.20;;;;;;;13.85;100.00;95614.38;5033608;28;20423;-79
2021/08/26 09:00:13;;;;;;;11.27;8.70;;;;;;;13.90;100.00;95620.03;5035043;28;20516;-79
2021/08/26 09:02:40;;;;;;;18.13;8.90;;;;;;;13.91;100.00;95623.50;5033242;28;20419;-79
2021/08/26 09:05:06;;;;;;;12.82;8.98;;;;;;;13.72;100.00;95635.34;5034457;28;20897;-79
2021/08/26 09:07:34;;;;;;;12.23;9.55;;;;;;;13.57;100.00;95628.69;5034362;28;20423;-79
2021/08/26 09:10:00;;;;;;;12.13;8.77;;;;;;;13.46;100.00;95618.28;5035176;28;20459;-79
2021/08/26 09:12:53;;;;;;;12.10;8.95;;;;;;;13.28;100.00;95621.34;5037317;28;20459;-80
2021/08/26 09:15:23;;;;;;;12.60;8.52;;;;;;;13.43;100.00;95624.56;5004829;28;20525;-80
2021/08/26 09:17:49;;;;;;;9.20;7.43;;;;;;;13.52;100.00;95625.63;5035610;28;20477;-80
2021/08/26 09:20:17;;;;;;;8.93;7.18;;;;;;;13.60;100.00;95623.25;5035706;28;20449;-80
2021/08/26 09:22:44;;;;;;;9.15;6.28;;;;;;;13.51;100.00;95621.38;5033367;28;20421;-79
2021/08/26 09:25:12;;;;;;;7.18;6.25;;;;;;;13.59;100.00;95619.00;5035086;28;20415;-78
2021/08/26 09:27:40;;;;;;;6.83;5.43;;;;;;;13.65;100.00;95607.31;5050626;28;20461;-80
2021/08/26 09:30:08;;;;;;;8.23;5.63;;;;;;;13.64;100.00;95618.63;5056164;28;20507;-79
2021/08/26 09:32:35;;;;;;;7.15;5.35;;;;;;;13.75;100.00;95619.47;5039932;28;20430;-79
2021/08/26 09:35:16;;;;;;;10.30;6.22;;;;;;;13.58;100.00;95622.56;5036560;28;20812;-78
2021/08/26 09:37:45;;;;;;;5.20;4.70;;;;;;;13.49;100.00;95628.44;5034032;28;20430;-79
2021/08/26 09:40:11;;;;;;;6.60;4.82;;;;;;;13.43;100.00;95629.78;5034004;28;20419;-79
2021/08/26 09:42:37;;;;;;;5.45;4.30;;;;;;;13.42;100.00;95625.53;5034258;28;20510;-79
2021/08/26 09:45:16;;;;;;;7.18;5.18;;;;;;;13.42;100.00;95632.47;5034207;28;20458;-79
2021/08/26 09:48:03;;;;;;;5.20;4.67;;;;;;;13.36;100.00;95632.94;5033172;28;20935;-79
2021/08/26 09:50:40;;;;;;;4.95;4.38;;;;;;;13.37;100.00;95629.41;5048809;28;20415;-79
2021/08/26 09:53:08;;;;;;;4.15;3.47;;;;;;;13.33;100.00;95634.00;5033154;28;20430;-79
2021/08/26 09:55:53;;;;;;;8.98;2.92;;;;;;;13.25;100.00;95631.16;5033120;28;20469;-79
2021/08/26 09:58:20;;;;;;;4.40;2.90;;;;;;;13.15;100.00;95628.38;5033517;28;20931;-79
2021/08/26 10:00:46;;;;;;;5.90;2.90;;;;;;;13.25;100.00;95634.59;5034949;28;20477;-80
2021/08/26 10:03:14;;;;;;;3.10;2.25;;;;;;;13.20;100.00;95638.44;5035834;28;20415;-80
2021/08/26 10:05:43;;;;;;;3.72;2.88;;;;;;;13.31;100.00;95641.94;5050983;28;20446;-78
2021/08/26 10:08:12;;;;;;;3.40;2.83;;;;;;;13.26;100.00;95638.84;5039454;28;20502;-80
2021/08/26 10:10:38;;;;;;;3.17;2.50;;;;;;;13.18;100.00;95642.94;5039888;28;20434;-80
2021/08/26 10:13:04;;;;;;;4.53;2.83;;;;;;;13.21;100.00;95653.94;5038840;28;20427;-80
2021/08/26 10:15:30;;;;;;;7.18;2.50;;;;;;;13.12;100.00;95652.00;5039270;28;20426;-80
2021/08/26 10:17:56;;;;;;;2.80;2.23;;;;;;;13.32;100.00;95655.75;5037068;28;20483;-78
2021/08/26 10:20:22;;;;;;;2.20;2.00;;;;;;;13.32;100.00;95651.38;5046756;28;20422;-77
2021/08/26 10:22:48;;;;;;;6.20;1.60;;;;;;;13.35;100.00;95655.53;5031018;28;20847;-77
2021/08/26 10:25:18;;;;;;;1.35;0.90;;;;;;;13.20;100.00;95652.28;5045132;28;20410;-80
2021/08/26 10:28:21;;;;;;;1.13;0.80;;;;;;;13.28;100.00;95654.34;5050824;28;20446;-80
2021/08/26 10:31:49;;;;;;;0.90;0.88;;;;;;;13.30;100.00;95653.25;5029593;28;20473;-80
2021/08/26 10:35:15;;;;;;;2.40;1.80;;;;;;;13.17;100.00;95667.28;5041455;28;20526;-80
2021/08/26 10:37:54;;;;;;;4.10;2.90;;;;;;;13.12;100.00;95659.00;5028531;28;20408;-79
2021/08/26 10:41:25;;;;;;;4.82;3.88;;;;;;;12.97;100.00;95659.19;5021710;28;20432;-77
2021/08/26 10:44:14;;;;;;;4.72;3.65;;;;;;;13.00;100.00;95658.97;5021362;28;20798;-79
2021/08/26 10:47:01;;;;;;;6.00;4.47;;;;;;;12.91;100.00;95661.44;5022308;28;20484;-77
2021/08/26 10:49:30;;;;;;;7.43;4.10;;;;;;;12.77;100.00;95659.84;5033366;28;20801;-78
2021/08/26 10:52:01;;;;;;;6.50;3.97;;;;;;;12.59;100.00;95662.00;5036602;28;21124;-78
2021/08/26 10:54:34;;;;;;;7.50;4.18;;;;;;;12.57;100.00;95661.28;5022300;28;20426;-78
2021/08/26 10:57:27;;;;;;;6.63;3.70;;;;;;;12.54;100.00;95667.53;5037973;28;20920;-78
2021/08/26 10:59:54;;;;;;;6.43;4.22;;;;;;;12.54;100.00;95658.91;5038560;28;20427;-79
2021/08/26 11:02:40;;;;;;;5.50;4.25;;;;;;;12.48;100.00;95667.13;5038693;28;20438;-77
2021/08/26 11:05:34;;;;;;;6.28;4.32;;;;;;;12.66;100.00;95659.78;5038874;28;20426;-77
2021/08/26 11:11:37;;;;;;;6.57;4.87;;;;;;;13.09;100.00;95662.66;5012371;28;20479;-77
2021/08/26 11:14:25;;;;;;;7.72;5.30;;;;;;;13.32;100.00;95661.78;5021243;28;20454;-77
2021/08/26 11:16:53;;;;;;;7.65;5.40;;;;;;;13.40;100.00;95668.19;5022371;28;20440;-77
2021/08/26 11:19:34;;;;;;;9.27;6.10;;;;;;;13.38;100.00;95659.66;5031643;28;20579;-76
2021/08/26 11:22:03;;;;;;;7.32;5.70;;;;;;;13.57;100.00;95665.13;5030836;28;20426;-76
2021/08/26 11:24:51;;;;;;;10.38;6.10;;;;;;;13.55;100.00;95661.81;5031612;28;20516;-76
2021/08/26 11:27:18;;;;;;;7.10;5.82;;;;;;;13.44;96.90;95657.44;5030765;28;20427;-76
2021/08/26 11:29:43;;;;;;;9.25;6.32;;;;;;;13.49;97.29;95657.06;5030875;28;20415;-75
2021/08/26 11:32:12;;;;;;;8.57;7.00;;;;;;;13.64;99.07;95673.28;5030871;28;20429;-76
2021/08/26 11:34:40;;;;;;;7.75;6.30;;;;;;;13.60;96.87;95662.28;5032248;28;20514;-76
2021/08/26 11:37:08;;;;;;;10.57;6.13;;;;;;;13.79;96.42;95661.69;5033922;28;20907;-76